createdAt,value
2022-08-11T00:00:22.650Z,988.16
2022-08-11T00:01:22.612Z,988.14
2022-08-11T00:02:22.724Z,988.25
2022-08-11T00:03:22.648Z,988.14
2022-08-11T00:04:23.581Z,988.15
2022-08-11T00:05:22.561Z,988.15
2022-08-11T00:06:22.552Z,988.16
2022-08-11T00:07:22.552Z,988.10
2022-08-11T00:08:22.523Z,988.23
2022-08-11T00:09:22.518Z,988.17
2022-08-11T00:10:22.502Z,988.18
2022-08-11T00:11:22.523Z,988.17
2022-08-11T00:12:22.474Z,988.17
2022-08-11T00:13:22.484Z,988.15
2022-08-11T00:14:22.456Z,988.16
2022-08-11T00:15:22.447Z,988.15
2022-08-11T00:16:22.475Z,988.19
2022-08-11T00:17:22.481Z,988.15
2022-08-11T00:18:22.415Z,988.11
2022-08-11T00:20:14.592Z,988.19
2022-08-11T00:20:23.406Z,988.19
2022-08-11T00:21:56.920Z,988.17
2022-08-11T00:22:23.376Z,988.14
2022-08-11T00:23:22.456Z,988.17
2022-08-11T00:24:22.355Z,988.15
2022-08-11T00:25:22.335Z,988.13
2022-08-11T00:26:22.327Z,988.17
2022-08-11T00:27:22.326Z,988.10
2022-08-11T00:28:22.338Z,988.12
2022-08-11T00:29:22.348Z,988.07
2022-08-11T00:30:22.308Z,988.13
2022-08-11T00:31:22.288Z,988.12
2022-08-11T00:32:22.279Z,988.14
2022-08-11T00:33:22.255Z,988.20
2022-08-11T00:34:23.334Z,988.18
2022-08-11T00:35:51.046Z,988.15
2022-08-11T00:36:25.569Z,988.21
2022-08-11T00:37:22.229Z,988.18
2022-08-11T00:38:22.209Z,988.19
2022-08-11T00:39:27.274Z,988.18
2022-08-11T00:40:23.204Z,988.16
2022-08-11T00:41:22.161Z,988.20
2022-08-11T00:42:22.161Z,988.20
2022-08-11T00:43:22.145Z,988.20
2022-08-11T00:44:22.142Z,988.21
2022-08-11T00:45:22.133Z,988.25
2022-08-11T00:46:22.113Z,988.25
2022-08-11T00:47:22.096Z,988.22
2022-08-11T00:48:22.094Z,988.24
2022-08-11T00:49:22.073Z,988.20
2022-08-11T00:50:22.091Z,988.22
2022-08-11T00:51:22.085Z,988.23
2022-08-11T00:52:22.068Z,988.31
2022-08-11T00:53:22.053Z,988.23
2022-08-11T00:54:22.056Z,988.25
2022-08-11T00:55:22.013Z,988.21
2022-08-11T00:56:22.028Z,988.20
2022-08-11T00:57:37.257Z,988.17
2022-08-11T00:58:22.983Z,988.17
2022-08-11T00:59:34.050Z,988.17
2022-08-11T01:00:22.967Z,988.23
2022-08-11T01:01:21.999Z,988.22
2022-08-11T01:02:21.938Z,988.27
2022-08-11T01:03:22.936Z,988.18
2022-08-11T01:04:21.927Z,988.21
2022-08-11T01:05:21.927Z,988.21
2022-08-11T01:06:21.907Z,988.17
2022-08-11T01:08:00.991Z,988.14
2022-08-11T01:08:22.881Z,988.23
2022-08-11T01:09:22.207Z,988.26
2022-08-11T01:10:21.855Z,988.21
2022-08-11T01:11:21.885Z,988.24
2022-08-11T01:12:21.870Z,988.24
2022-08-11T01:13:21.855Z,988.21
2022-08-11T01:14:26.116Z,988.22
2022-08-11T01:15:22.819Z,988.19
2022-08-11T01:16:21.811Z,988.22
2022-08-11T01:17:27.999Z,988.23
2022-08-11T01:18:21.770Z,988.15
2022-08-11T01:19:22.761Z,988.18
2022-08-11T01:20:46.990Z,988.16
2022-08-11T01:21:22.763Z,988.22
2022-08-11T01:22:21.722Z,988.20
2022-08-11T01:23:21.717Z,988.27
2022-08-11T01:24:21.710Z,988.16
2022-08-11T01:25:21.700Z,988.24
2022-08-11T01:26:21.681Z,988.16
2022-08-11T01:27:21.675Z,988.20
2022-08-11T01:28:21.663Z,988.19
2022-08-11T01:29:21.653Z,988.20
2022-08-11T01:30:21.662Z,988.25
2022-08-11T01:31:23.687Z,988.21
2022-08-11T01:32:21.614Z,988.20
2022-08-11T01:33:21.635Z,988.17
2022-08-11T01:34:21.605Z,988.15
2022-08-11T01:35:21.596Z,988.17
2022-08-11T01:36:21.565Z,988.09
2022-08-11T01:37:21.594Z,988.20
2022-08-11T01:38:21.576Z,988.14
2022-08-11T01:39:21.613Z,988.20
2022-08-11T01:40:21.555Z,988.12
2022-08-11T01:41:21.518Z,988.17
2022-08-11T01:42:21.508Z,988.15
2022-08-11T01:43:21.497Z,988.15
2022-08-11T01:44:21.481Z,988.16
2022-08-11T01:45:21.506Z,988.18
2022-08-11T01:46:21.483Z,988.14
2022-08-11T01:47:21.459Z,988.16
2022-08-11T01:48:21.439Z,988.16
2022-08-11T01:50:06.590Z,988.11
2022-08-11T01:50:22.422Z,988.14
2022-08-11T01:51:21.481Z,988.17
2022-08-11T01:52:33.302Z,988.15
2022-08-11T01:53:22.390Z,988.10
2022-08-11T01:54:21.378Z,988.14
2022-08-11T01:55:21.370Z,988.10
2022-08-11T01:56:21.382Z,988.05
2022-08-11T01:57:21.354Z,988.05
2022-08-11T01:58:21.332Z,988.13
2022-08-11T01:59:22.330Z,988.18
2022-08-11T02:00:21.323Z,988.13
2022-08-11T02:01:21.395Z,988.07
2022-08-11T02:02:21.767Z,988.16
2022-08-11T02:03:21.283Z,988.11
2022-08-11T02:04:21.302Z,988.14
2022-08-11T02:05:21.264Z,988.15
2022-08-11T02:06:21.246Z,988.22
2022-08-11T02:07:21.262Z,988.23
2022-08-11T02:08:21.223Z,988.30
2022-08-11T02:09:22.254Z,988.28
2022-08-11T02:10:21.275Z,988.23
2022-08-11T02:11:21.215Z,988.22
2022-08-11T02:12:21.185Z,988.12
2022-08-11T02:13:30.313Z,988.11
2022-08-11T02:14:22.179Z,988.09
2022-08-11T02:15:21.154Z,988.07
2022-08-11T02:16:21.144Z,987.98
2022-08-11T02:17:21.134Z,987.99
2022-08-11T02:18:21.116Z,987.96
2022-08-11T02:19:21.127Z,987.99
2022-08-11T02:20:21.095Z,988.03
2022-08-11T02:21:21.098Z,988.10
2022-08-11T02:22:21.075Z,988.05
2022-08-11T02:23:59.598Z,988.04
2022-08-11T02:24:22.066Z,988.10
2022-08-11T02:25:21.044Z,988.10
2022-08-11T02:26:21.029Z,988.08
2022-08-11T02:27:21.031Z,988.05
2022-08-11T02:28:21.009Z,988.00
2022-08-11T02:29:21.023Z,988.03
2022-08-11T02:30:20.999Z,988.06
2022-08-11T02:32:17.163Z,987.98
2022-08-11T02:32:28.717Z,987.93
2022-08-11T02:33:21.961Z,987.99
2022-08-11T02:34:20.952Z,987.95
2022-08-11T02:35:20.931Z,988.00
2022-08-11T02:36:20.929Z,988.07
2022-08-11T02:37:23.793Z,988.05
2022-08-11T02:38:20.910Z,988.05
2022-08-11T02:39:20.943Z,988.07
2022-08-11T02:40:20.885Z,988.07
2022-08-11T02:41:20.982Z,987.98
2022-08-11T02:42:32.122Z,988.06
2022-08-11T02:43:21.872Z,988.09
2022-08-11T02:44:20.833Z,988.07
2022-08-11T02:45:20.846Z,988.07
2022-08-11T02:46:20.802Z,988.04
2022-08-11T02:47:20.794Z,988.02
2022-08-11T02:48:20.805Z,988.01
2022-08-11T02:49:20.784Z,988.02
2022-08-11T02:50:20.768Z,988.01
2022-08-11T02:51:21.911Z,988.00
2022-08-11T02:52:20.754Z,988.01
2022-08-11T02:53:20.773Z,988.01
2022-08-11T02:54:20.747Z,988.01
2022-08-11T02:55:48.870Z,988.03
2022-08-11T02:56:21.728Z,988.00
2022-08-11T02:57:20.717Z,988.03
2022-08-11T02:58:26.931Z,988.00
2022-08-11T02:59:21.697Z,988.07
2022-08-11T03:00:20.674Z,988.04
2022-08-11T03:01:20.721Z,988.14
2022-08-11T03:02:20.638Z,988.09
2022-08-11T03:03:20.628Z,988.08
2022-08-11T03:04:20.667Z,988.13
2022-08-11T03:05:20.612Z,988.10
2022-08-11T03:06:20.638Z,988.06
2022-08-11T03:07:29.058Z,988.09
2022-08-11T03:08:21.578Z,988.04
2022-08-11T03:09:20.569Z,988.07
2022-08-11T03:10:20.549Z,988.07
2022-08-11T03:11:20.560Z,988.08
2022-08-11T03:12:20.537Z,988.12
2022-08-11T03:13:20.522Z,988.08
2022-08-11T03:14:20.512Z,988.07
2022-08-11T03:15:20.505Z,988.14
2022-08-11T03:16:20.502Z,988.09
2022-08-11T03:17:20.481Z,988.10
2022-08-11T03:18:20.481Z,988.09
2022-08-11T03:19:20.873Z,988.11
2022-08-11T03:20:20.452Z,988.11
2022-08-11T03:21:20.441Z,988.11
2022-08-11T03:22:20.421Z,988.08
2022-08-11T03:23:20.672Z,988.17
2022-08-11T03:24:20.404Z,988.11
2022-08-11T03:25:20.405Z,988.17
2022-08-11T03:26:20.393Z,988.16
2022-08-11T03:27:20.363Z,988.16
2022-08-11T03:28:20.363Z,988.18
2022-08-11T03:29:25.160Z,988.17
2022-08-11T03:30:21.355Z,988.22
2022-08-11T03:31:20.324Z,988.25
2022-08-11T03:32:20.305Z,988.19
2022-08-11T03:33:20.307Z,988.23
2022-08-11T03:34:20.305Z,988.19
2022-08-11T03:35:21.657Z,988.23
2022-08-11T03:36:20.267Z,988.22
2022-08-11T03:37:20.257Z,988.21
2022-08-11T03:38:20.248Z,988.21
2022-08-11T03:39:21.254Z,988.23
2022-08-11T03:40:20.276Z,988.27
2022-08-11T03:42:02.490Z,988.33
2022-08-11T03:42:21.201Z,988.28
2022-08-11T03:43:20.205Z,988.27
2022-08-11T03:44:20.180Z,988.25
2022-08-11T03:45:20.177Z,988.26
2022-08-11T03:46:20.159Z,988.25
2022-08-11T03:47:20.147Z,988.25
2022-08-11T03:48:20.172Z,988.22
2022-08-11T03:49:20.141Z,988.27
2022-08-11T03:50:20.113Z,988.26
2022-08-11T03:51:20.108Z,988.25
2022-08-11T03:52:20.112Z,988.22
2022-08-11T03:53:20.134Z,988.20
2022-08-11T03:54:20.081Z,988.24
2022-08-11T03:55:20.072Z,988.22
2022-08-11T03:56:20.081Z,988.25
2022-08-11T03:57:20.048Z,988.27
2022-08-11T03:58:20.061Z,988.29
2022-08-11T03:59:20.021Z,988.23
2022-08-11T04:00:20.003Z,988.29
2022-08-11T04:01:20.072Z,988.24
2022-08-11T04:02:19.998Z,988.30
2022-08-11T04:03:20.055Z,988.27
2022-08-11T04:04:20.024Z,988.21
2022-08-11T04:05:19.978Z,988.24
2022-08-11T04:06:19.941Z,988.21
2022-08-11T04:07:19.942Z,988.22
2022-08-11T04:08:19.944Z,988.28
2022-08-11T04:09:19.984Z,988.31
2022-08-11T04:10:19.915Z,988.29
2022-08-11T04:11:19.884Z,988.31
2022-08-11T04:12:35.581Z,988.30
2022-08-11T04:13:20.905Z,988.27
2022-08-11T04:14:19.892Z,988.26
2022-08-11T04:15:19.854Z,988.34
2022-08-11T04:16:19.856Z,988.36
2022-08-11T04:17:19.835Z,988.29
2022-08-11T04:18:19.927Z,988.35
2022-08-11T04:19:19.837Z,988.37
2022-08-11T04:20:19.797Z,988.29
2022-08-11T04:21:19.815Z,988.33
2022-08-11T04:22:20.853Z,988.41
2022-08-11T04:24:33.041Z,988.31
2022-08-11T04:24:38.518Z,988.27
2022-08-11T04:25:20.828Z,988.28
2022-08-11T04:26:19.989Z,988.35
2022-08-11T04:27:19.796Z,988.35
2022-08-11T04:28:28.868Z,988.35
2022-08-11T04:29:20.757Z,988.32
2022-08-11T04:30:20.429Z,988.34
2022-08-11T04:31:44.177Z,988.31
2022-08-11T04:32:20.719Z,988.33
2022-08-11T04:33:19.761Z,988.33
2022-08-11T04:34:19.767Z,988.34
2022-08-11T04:35:19.749Z,988.35
2022-08-11T04:36:19.631Z,988.34
2022-08-11T04:37:19.721Z,988.36
2022-08-11T04:38:19.592Z,988.31
2022-08-11T04:39:19.710Z,988.39
2022-08-11T04:40:19.674Z,988.37
2022-08-11T04:41:19.603Z,988.38
2022-08-11T04:42:19.562Z,988.39
2022-08-11T04:43:19.546Z,988.46
2022-08-11T04:44:19.547Z,988.45
2022-08-11T04:45:19.541Z,988.42
2022-08-11T04:46:19.663Z,988.42
2022-08-11T04:47:20.217Z,988.42
2022-08-11T04:48:19.533Z,988.47
2022-08-11T04:49:25.651Z,988.41
2022-08-11T04:50:20.493Z,988.41
2022-08-11T04:51:19.487Z,988.40
2022-08-11T04:52:19.446Z,988.43
2022-08-11T04:53:19.444Z,988.47
2022-08-11T04:54:19.461Z,988.48
2022-08-11T04:55:19.411Z,988.45
2022-08-11T04:56:19.403Z,988.47
2022-08-11T04:57:19.427Z,988.44
2022-08-11T04:58:19.426Z,988.49
2022-08-11T04:59:19.418Z,988.49
2022-08-11T05:00:19.364Z,988.42
2022-08-11T05:01:19.427Z,988.47
2022-08-11T05:02:19.439Z,988.50
2022-08-11T05:03:19.396Z,988.44
2022-08-11T05:04:19.337Z,988.49
2022-08-11T05:05:19.298Z,988.49
2022-08-11T05:06:19.287Z,988.51
2022-08-11T05:07:19.279Z,988.48
2022-08-11T05:08:23.417Z,988.58
2022-08-11T05:09:19.288Z,988.57
2022-08-11T05:10:19.249Z,988.54
2022-08-11T05:11:19.241Z,988.54
2022-08-11T05:12:19.232Z,988.57
2022-08-11T05:13:19.211Z,988.54
2022-08-11T05:14:19.210Z,988.45
2022-08-11T05:15:19.197Z,988.45
2022-08-11T05:16:19.201Z,988.45
2022-08-11T05:17:19.171Z,988.47
2022-08-11T05:18:19.162Z,988.45
2022-08-11T05:19:19.148Z,988.49
2022-08-11T05:20:19.208Z,988.49
2022-08-11T05:21:19.150Z,988.48
2022-08-11T05:22:19.161Z,988.50
2022-08-11T05:23:19.155Z,988.53
2022-08-11T05:24:19.112Z,988.53
2022-08-11T05:26:45.330Z,988.54
2022-08-11T05:26:46.055Z,988.56
2022-08-11T05:27:20.083Z,988.54
2022-08-11T05:28:19.054Z,988.57
2022-08-11T05:29:20.154Z,988.55
2022-08-11T05:30:19.043Z,988.53
2022-08-11T05:31:19.024Z,988.54
2022-08-11T05:32:19.033Z,988.51
2022-08-11T05:33:18.994Z,988.57
2022-08-11T05:34:18.995Z,988.46
2022-08-11T05:36:00.756Z,988.51
2022-08-11T05:36:19.996Z,988.46
2022-08-11T05:37:26.722Z,988.49
2022-08-11T05:38:19.945Z,988.49
2022-08-11T05:39:19.023Z,988.51
2022-08-11T05:40:18.965Z,988.58
2022-08-11T05:41:18.913Z,988.56
2022-08-11T05:42:21.358Z,988.54
2022-08-11T05:43:19.918Z,988.53
2022-08-11T05:44:20.261Z,988.59
2022-08-11T05:45:18.868Z,988.55
2022-08-11T05:46:18.866Z,988.55
2022-08-11T05:47:18.867Z,988.43
2022-08-11T05:48:18.868Z,988.51
2022-08-11T05:49:18.826Z,988.48
2022-08-11T05:50:18.842Z,988.47
2022-08-11T05:51:25.834Z,988.49
2022-08-11T05:52:19.806Z,988.44
2022-08-11T05:53:19.798Z,988.52
2022-08-11T05:54:28.775Z,988.55
2022-08-11T05:55:19.779Z,988.56
2022-08-11T05:56:18.770Z,988.52
2022-08-11T05:57:48.553Z,988.56
2022-08-11T05:58:19.768Z,988.50
2022-08-11T05:59:18.856Z,988.54
2022-08-11T06:00:18.801Z,988.54
2022-08-11T06:01:18.859Z,988.60
2022-08-11T06:02:18.783Z,988.56
2022-08-11T06:03:18.673Z,988.51
2022-08-11T06:04:18.692Z,988.57
2022-08-11T06:05:19.447Z,988.51
2022-08-11T06:06:18.743Z,988.52
2022-08-11T06:07:20.724Z,988.54
2022-08-11T06:08:18.621Z,988.53
2022-08-11T06:09:18.625Z,988.56
2022-08-11T06:10:18.604Z,988.57
2022-08-11T06:11:18.614Z,988.53
2022-08-11T06:12:19.576Z,988.52
2022-08-11T06:13:18.566Z,988.51
2022-08-11T06:14:18.555Z,988.48
2022-08-11T06:15:18.562Z,988.61
2022-08-11T06:16:18.595Z,988.55
2022-08-11T06:17:18.538Z,988.56
2022-08-11T06:18:18.516Z,988.53
2022-08-11T06:19:18.495Z,988.53
2022-08-11T06:20:18.495Z,988.54
2022-08-11T06:21:18.525Z,988.54
2022-08-11T06:22:18.477Z,988.53
2022-08-11T06:23:18.519Z,988.50
2022-08-11T06:24:18.494Z,988.58
2022-08-11T06:25:18.486Z,988.50
2022-08-11T06:26:18.427Z,988.54
2022-08-11T06:27:18.455Z,988.52
2022-08-11T06:28:20.797Z,988.55
2022-08-11T06:29:18.417Z,988.56
2022-08-11T06:30:18.402Z,988.52
2022-08-11T06:31:18.385Z,988.54
2022-08-11T06:32:18.359Z,988.59
2022-08-11T06:33:18.346Z,988.54
2022-08-11T06:34:27.232Z,988.49
2022-08-11T06:35:19.369Z,988.55
2022-08-11T06:36:18.338Z,988.53
2022-08-11T06:37:18.330Z,988.54
2022-08-11T06:38:18.300Z,988.59
2022-08-11T06:39:18.350Z,988.57
2022-08-11T06:40:18.271Z,988.55
2022-08-11T06:41:18.292Z,988.61
2022-08-11T06:42:18.251Z,988.60
2022-08-11T06:43:18.268Z,988.58
2022-08-11T06:44:18.252Z,988.57
2022-08-11T06:45:18.210Z,988.57
2022-08-11T06:46:28.244Z,988.63
2022-08-11T06:47:19.501Z,988.62
2022-08-11T06:48:18.183Z,988.61
2022-08-11T06:49:18.203Z,988.56
2022-08-11T06:50:18.162Z,988.58
2022-08-11T06:51:18.143Z,988.57
2022-08-11T06:52:34.672Z,988.59
2022-08-11T06:53:19.123Z,988.56
2022-08-11T06:54:18.166Z,988.59
2022-08-11T06:55:56.835Z,988.55
2022-08-11T06:56:19.094Z,988.62
2022-08-11T06:57:33.408Z,988.59
2022-08-11T06:58:19.104Z,988.56
2022-08-11T06:59:18.105Z,988.57
2022-08-11T07:00:18.143Z,988.58
2022-08-11T07:01:18.220Z,988.59
2022-08-11T07:02:18.122Z,988.60
2022-08-11T07:03:18.052Z,988.57
2022-08-11T07:04:18.011Z,988.55
2022-08-11T07:05:18.007Z,988.57
2022-08-11T07:06:18.048Z,988.59
2022-08-11T07:07:18.010Z,988.61
2022-08-11T07:08:33.273Z,988.59
2022-08-11T07:09:18.990Z,988.60
2022-08-11T07:10:17.966Z,988.58
2022-08-11T07:11:17.932Z,988.55
2022-08-11T07:12:17.931Z,988.59
2022-08-11T07:13:43.162Z,988.48
2022-08-11T07:14:18.958Z,988.52
2022-08-11T07:15:17.889Z,988.48
2022-08-11T07:16:17.894Z,988.47
2022-08-11T07:17:18.867Z,988.50
2022-08-11T07:18:17.860Z,988.46
2022-08-11T07:19:17.841Z,988.46
2022-08-11T07:20:17.887Z,988.47
2022-08-11T07:22:00.922Z,988.46
2022-08-11T07:22:18.819Z,988.42
2022-08-11T07:23:17.814Z,988.45
2022-08-11T07:24:17.797Z,988.36
2022-08-11T07:25:17.802Z,988.42
2022-08-11T07:26:17.783Z,988.48
2022-08-11T07:27:17.823Z,988.35
2022-08-11T07:28:17.784Z,988.41
2022-08-11T07:29:17.733Z,988.37
2022-08-11T07:30:17.765Z,988.39
2022-08-11T07:31:17.724Z,988.45
2022-08-11T07:32:17.712Z,988.42
2022-08-11T07:34:05.634Z,988.43
2022-08-11T07:34:18.757Z,988.40
2022-08-11T07:35:17.732Z,988.32
2022-08-11T07:36:17.684Z,988.31
2022-08-11T07:37:17.741Z,988.34
2022-08-11T07:38:22.182Z,988.40
2022-08-11T07:39:18.681Z,988.36
2022-08-11T07:40:17.664Z,988.34
2022-08-11T07:41:17.615Z,988.44
2022-08-11T07:42:17.607Z,988.45
2022-08-11T07:43:17.587Z,988.42
2022-08-11T07:44:17.696Z,988.46
2022-08-11T07:45:17.566Z,988.35
2022-08-11T07:46:17.627Z,988.40
2022-08-11T07:47:17.571Z,988.42
2022-08-11T07:48:17.567Z,988.40
2022-08-11T07:49:17.558Z,988.43
2022-08-11T07:50:17.519Z,988.37
2022-08-11T07:51:17.557Z,988.36
2022-08-11T07:52:17.559Z,988.34
2022-08-11T07:53:17.479Z,988.34
2022-08-11T07:54:17.586Z,988.36
2022-08-11T07:55:17.510Z,988.32
2022-08-11T07:56:17.470Z,988.34
2022-08-11T07:57:58.445Z,988.34
2022-08-11T07:58:19.816Z,988.33
2022-08-11T07:59:17.452Z,988.30
2022-08-11T08:00:17.411Z,988.25
2022-08-11T08:01:22.531Z,988.32
2022-08-11T08:02:20.162Z,988.26
2022-08-11T08:03:17.369Z,988.30
2022-08-11T08:04:17.363Z,988.23
2022-08-11T08:05:17.344Z,988.30
2022-08-11T08:06:35.578Z,988.29
2022-08-11T08:07:18.327Z,988.28
2022-08-11T08:08:17.458Z,988.21
2022-08-11T08:09:17.344Z,988.22
2022-08-11T08:10:17.314Z,988.20
2022-08-11T08:11:17.333Z,988.16
2022-08-11T08:12:17.279Z,988.14
2022-08-11T08:13:17.262Z,988.20
2022-08-11T08:14:17.256Z,988.22
2022-08-11T08:15:17.355Z,988.19
2022-08-11T08:16:17.235Z,988.16
2022-08-11T08:17:17.225Z,988.18
2022-08-11T08:18:26.000Z,988.17
2022-08-11T08:19:18.197Z,988.16
2022-08-11T08:20:17.207Z,988.21
2022-08-11T08:21:17.187Z,988.17
2022-08-11T08:22:37.938Z,988.18
2022-08-11T08:23:18.241Z,988.14
2022-08-11T08:24:17.148Z,988.19
2022-08-11T08:25:17.156Z,988.16
2022-08-11T08:26:17.159Z,988.13
2022-08-11T08:27:17.119Z,988.12
2022-08-11T08:28:17.115Z,988.15
2022-08-11T08:29:17.111Z,988.13
2022-08-11T08:30:17.084Z,988.16
2022-08-11T08:31:17.100Z,988.16
2022-08-11T08:32:17.060Z,988.15
2022-08-11T08:33:17.101Z,988.14
2022-08-11T08:34:17.039Z,988.14
2022-08-11T08:35:17.038Z,988.14
2022-08-11T08:36:17.069Z,988.12
2022-08-11T08:37:47.270Z,988.16
2022-08-11T08:38:18.559Z,988.12
2022-08-11T08:39:17.048Z,988.16
2022-08-11T08:40:16.974Z,988.14
2022-08-11T08:41:17.115Z,988.14
2022-08-11T08:42:16.953Z,988.14
2022-08-11T08:43:16.994Z,988.12
2022-08-11T08:45:17.953Z,988.11
2022-08-11T08:46:16.905Z,988.08
2022-08-11T08:47:42.939Z,988.10
2022-08-11T08:48:17.926Z,988.09
2022-08-11T08:49:16.894Z,988.09
2022-08-11T08:50:17.173Z,988.10
2022-08-11T08:51:16.867Z,988.10
2022-08-11T08:52:25.407Z,988.01
2022-08-11T08:53:17.827Z,987.99
2022-08-11T08:54:16.842Z,987.99
2022-08-11T08:55:16.843Z,987.94
2022-08-11T08:56:16.823Z,987.93
2022-08-11T08:57:16.807Z,987.96
2022-08-11T08:58:16.785Z,987.98
2022-08-11T08:59:16.788Z,987.99
2022-08-11T09:00:20.755Z,987.97
2022-08-11T09:01:17.851Z,987.98
2022-08-11T09:02:16.770Z,988.00
2022-08-11T09:03:39.916Z,987.98
2022-08-11T09:04:20.941Z,988.00
2022-08-11T09:05:16.750Z,987.96
2022-08-11T09:06:16.730Z,988.03
2022-08-11T09:07:16.704Z,987.93
2022-08-11T09:08:16.672Z,987.94
2022-08-11T09:09:16.671Z,988.00
2022-08-11T09:10:16.672Z,987.97
2022-08-11T09:11:16.712Z,988.02
2022-08-11T09:12:16.651Z,987.98
2022-08-11T09:13:17.623Z,987.93
2022-08-11T09:14:16.612Z,988.00
2022-08-11T09:15:19.772Z,987.97
2022-08-11T09:16:16.913Z,987.93
2022-08-11T09:17:16.613Z,987.99
2022-08-11T09:18:16.578Z,987.92
2022-08-11T09:19:16.590Z,987.92
2022-08-11T09:20:16.645Z,987.94
2022-08-11T09:21:46.387Z,987.95
2022-08-11T09:22:17.595Z,988.08
2022-08-11T09:24:07.798Z,987.97
2022-08-11T09:24:25.864Z,987.97
2022-08-11T09:25:17.556Z,987.90
2022-08-11T09:26:16.539Z,987.94
2022-08-11T09:27:16.487Z,988.01
2022-08-11T09:28:16.457Z,987.95
2022-08-11T09:29:16.449Z,987.95
2022-08-11T09:30:16.472Z,987.96
2022-08-11T09:31:16.465Z,987.96
2022-08-11T09:32:16.468Z,987.94
2022-08-11T09:33:16.426Z,987.91
2022-08-11T09:34:16.405Z,987.92
2022-08-11T09:35:16.387Z,988.04
2022-08-11T09:36:16.419Z,987.99
2022-08-11T09:37:53.581Z,988.00
2022-08-11T09:38:17.664Z,987.99
2022-08-11T09:39:16.388Z,988.02
2022-08-11T09:40:16.371Z,987.97
2022-08-11T09:41:16.356Z,988.01
2022-08-11T09:42:18.881Z,987.95
2022-08-11T09:43:17.303Z,987.99
2022-08-11T09:44:16.315Z,988.04
2022-08-11T09:45:16.285Z,987.98
2022-08-11T09:46:16.263Z,988.01
2022-08-11T09:47:16.266Z,987.91
2022-08-11T09:48:16.272Z,987.91
2022-08-11T09:49:16.233Z,987.94
2022-08-11T09:50:16.276Z,987.90
2022-08-11T09:51:16.229Z,987.96
2022-08-11T09:52:16.203Z,987.93
2022-08-11T09:53:36.594Z,987.89
2022-08-11T09:54:17.213Z,987.89
2022-08-11T09:55:16.167Z,988.01
2022-08-11T09:56:16.226Z,988.00
2022-08-11T09:57:16.156Z,987.96
2022-08-11T09:58:42.013Z,987.89
2022-08-11T09:59:17.147Z,987.88
2022-08-11T10:00:16.190Z,987.84
2022-08-11T10:01:16.199Z,987.85
2022-08-11T10:02:16.088Z,987.81
2022-08-11T10:03:16.079Z,987.75
2022-08-11T10:04:16.069Z,987.90
2022-08-11T10:05:16.162Z,987.92
2022-08-11T10:06:16.047Z,987.80
2022-08-11T10:07:16.039Z,987.83
2022-08-11T10:08:16.062Z,987.76
2022-08-11T10:09:16.037Z,987.74
2022-08-11T10:10:16.047Z,987.74
2022-08-11T10:11:16.011Z,987.76
2022-08-11T10:12:16.051Z,987.77
2022-08-11T10:14:03.732Z,987.76
2022-08-11T10:14:32.760Z,987.74
2022-08-11T10:15:16.981Z,987.70
2022-08-11T10:16:16.909Z,987.68
2022-08-11T10:17:15.991Z,987.68
2022-08-11T10:18:15.948Z,987.65
2022-08-11T10:19:15.922Z,987.69
2022-08-11T10:20:15.894Z,987.63
2022-08-11T10:21:15.945Z,987.75
2022-08-11T10:22:15.935Z,987.70
2022-08-11T10:23:15.874Z,987.64
2022-08-11T10:24:15.904Z,987.65
2022-08-11T10:25:20.010Z,987.64
2022-08-11T10:26:15.882Z,987.61
2022-08-11T10:27:15.826Z,987.69
2022-08-11T10:28:30.592Z,987.77
2022-08-11T10:29:17.041Z,987.71
2022-08-11T10:30:15.801Z,987.60
2022-08-11T10:31:16.457Z,987.61
2022-08-11T10:32:15.789Z,987.65
2022-08-11T10:33:36.462Z,987.66
2022-08-11T10:34:16.748Z,987.60
2022-08-11T10:35:16.038Z,987.57
2022-08-11T10:36:16.694Z,987.54
2022-08-11T10:37:15.742Z,987.52
2022-08-11T10:38:15.942Z,987.60
2022-08-11T10:39:15.736Z,987.57
2022-08-11T10:40:15.755Z,987.52
2022-08-11T10:41:15.741Z,987.61
2022-08-11T10:42:26.120Z,987.59
2022-08-11T10:44:01.935Z,987.59
2022-08-11T10:44:16.751Z,987.65
2022-08-11T10:45:15.707Z,987.55
2022-08-11T10:46:15.662Z,987.60
2022-08-11T10:47:15.613Z,987.55
2022-08-11T10:48:15.782Z,987.55
2022-08-11T10:49:15.597Z,987.44
2022-08-11T10:50:15.603Z,987.54
2022-08-11T10:51:15.614Z,987.47
2022-08-11T10:52:16.581Z,987.34
2022-08-11T10:53:15.555Z,987.30
2022-08-11T10:54:15.555Z,987.28
2022-08-11T10:55:15.553Z,987.31
2022-08-11T10:56:15.533Z,987.29
2022-08-11T10:57:15.547Z,987.46
2022-08-11T10:58:15.495Z,987.38
2022-08-11T10:59:15.580Z,987.47
2022-08-11T11:00:15.612Z,987.27
2022-08-11T11:01:15.494Z,987.32
2022-08-11T11:02:15.450Z,987.41
2022-08-11T11:03:23.711Z,987.26
2022-08-11T11:04:16.428Z,987.26
2022-08-11T11:05:15.438Z,987.38
2022-08-11T11:06:28.196Z,987.24
2022-08-11T11:07:16.460Z,987.25
2022-08-11T11:08:15.380Z,987.17
2022-08-11T11:09:15.384Z,987.26
2022-08-11T11:10:15.491Z,987.20
2022-08-11T11:11:18.370Z,987.24
2022-08-11T11:12:15.341Z,987.24
2022-08-11T11:13:15.402Z,987.21
2022-08-11T11:14:15.519Z,987.23
2022-08-11T11:15:17.495Z,987.25
2022-08-11T11:16:15.323Z,987.19
2022-08-11T11:17:15.305Z,987.21
2022-08-11T11:18:15.302Z,987.20
2022-08-11T11:19:15.272Z,987.15
2022-08-11T11:20:36.713Z,987.10
2022-08-11T11:21:16.285Z,987.03
2022-08-11T11:22:15.255Z,987.07
2022-08-11T11:23:15.235Z,987.03
2022-08-11T11:24:15.286Z,987.01
2022-08-11T11:25:15.239Z,986.99
2022-08-11T11:26:15.237Z,987.08
2022-08-11T11:27:15.236Z,987.06
2022-08-11T11:28:15.232Z,987.05
2022-08-11T11:29:15.220Z,987.01
2022-08-11T11:30:15.172Z,986.98
2022-08-11T11:31:15.737Z,986.89
2022-08-11T11:32:15.156Z,986.99
2022-08-11T11:33:15.138Z,987.01
2022-08-11T11:34:15.149Z,986.98
2022-08-11T11:35:15.101Z,986.94
2022-08-11T11:36:15.087Z,986.93
2022-08-11T11:37:15.119Z,986.89
2022-08-11T11:38:15.143Z,986.89
2022-08-11T11:39:15.337Z,986.85
2022-08-11T11:40:15.093Z,986.91
2022-08-11T11:41:15.032Z,986.87
2022-08-11T11:42:15.041Z,986.85
2022-08-11T11:43:15.023Z,986.88
2022-08-11T11:44:15.002Z,986.88
2022-08-11T11:45:23.942Z,986.85
2022-08-11T11:46:15.984Z,986.85
2022-08-11T11:47:15.033Z,986.81
2022-08-11T11:48:14.975Z,986.76
2022-08-11T11:49:17.001Z,986.84
2022-08-11T11:50:14.989Z,986.68
2022-08-11T11:51:14.974Z,986.62
2022-08-11T11:52:15.018Z,986.52
2022-08-11T11:53:14.927Z,986.68
2022-08-11T11:54:14.917Z,986.74
2022-08-11T11:55:14.929Z,986.79
2022-08-11T11:56:14.908Z,986.77
2022-08-11T11:57:14.868Z,986.73
2022-08-11T11:58:17.882Z,986.70
2022-08-11T11:59:14.912Z,986.66
2022-08-11T12:00:14.864Z,986.68
2022-08-11T12:01:14.870Z,986.66
2022-08-11T12:02:14.866Z,986.73
2022-08-11T12:03:14.845Z,986.70
2022-08-11T12:04:14.795Z,986.69
2022-08-11T12:05:14.829Z,986.64
2022-08-11T12:06:14.769Z,986.64
2022-08-11T12:07:14.816Z,986.58
2022-08-11T12:08:14.751Z,986.65
2022-08-11T12:09:15.454Z,986.68
2022-08-11T12:10:14.754Z,986.61
2022-08-11T12:11:14.744Z,986.55
2022-08-11T12:12:14.714Z,986.64
2022-08-11T12:13:14.723Z,986.61
2022-08-11T12:14:14.704Z,986.54
2022-08-11T12:15:14.736Z,986.55
2022-08-11T12:16:34.851Z,986.60
2022-08-11T12:17:15.708Z,986.58
2022-08-11T12:18:14.703Z,986.59
2022-08-11T12:19:14.718Z,986.53
2022-08-11T12:20:31.562Z,986.51
2022-08-11T12:21:15.617Z,986.45
2022-08-11T12:22:14.659Z,986.52
2022-08-11T12:23:14.838Z,986.48
2022-08-11T12:24:14.589Z,986.54
2022-08-11T12:25:14.860Z,986.48
2022-08-11T12:26:26.959Z,986.45
2022-08-11T12:27:17.650Z,986.44
2022-08-11T12:28:14.542Z,986.36
2022-08-11T12:29:14.541Z,986.42